Time;durP1;ratioP1;P1;durP2;ratioP2;P2;SDS_P1;SDS_P2;PMS_P1;PMS_P2;Temp;Humidity;BMP_temperature;BMP_pressure;BME280_temperature;BME280_humidity;BME280_pressure;Samples;Min_cycle;Max_cycle;Signal;HPM_P1;HPM_P2
2022/10/09 00:01:32;;;;;;;10.13;2.83;;;;;;;;;;2441317;57;21092;-84
2022/10/09 00:03:59;;;;;;;10.25;2.53;;;;;;;;;;2221406;61;21087;-84
2022/10/09 00:06:27;;;;;;;9.93;2.78;;;;;;;;;;2221530;61;21142;-85
2022/10/09 00:08:55;;;;;;;6.35;2.53;;;;;;;;;;2441149;57;21096;-84
2022/10/09 00:11:23;;;;;;;9.80;2.90;;;;;;;;;;2221488;61;21136;-84
2022/10/09 00:13:50;;;;;;;14.23;2.72;;;;;;;;;;2221510;61;21068;-84
2022/10/09 00:16:18;;;;;;;12.10;3.08;;;;;;;;;;2221286;61;21084;-84
2022/10/09 00:18:45;;;;;;;8.25;2.60;;;;;;;;;;2221517;61;21322;-84
2022/10/09 00:21:17;;;;;;;11.43;2.90;;;;;;;;;;2221425;61;21176;-84
2022/10/09 00:23:44;;;;;;;6.97;2.35;;;;;;;;;;2441389;57;21076;-84
2022/10/09 00:26:11;;;;;;;5.95;2.40;;;;;;;;;;2221515;61;21689;-84
2022/10/09 00:28:38;;;;;;;6.60;2.40;;;;;;;;;;2441351;57;21116;-84
2022/10/09 00:31:06;;;;;;;11.23;2.80;;;;;;;;;;2440971;57;21111;-84
2022/10/09 00:33:33;;;;;;;10.57;2.45;;;;;;;;;;2221429;61;21173;-84
2022/10/09 00:36:02;;;;;;;7.18;2.35;;;;;;;;;;2441469;57;21092;-84
2022/10/09 00:38:29;;;;;;;10.13;2.72;;;;;;;;;;2441204;57;21076;-84
2022/10/09 00:40:56;;;;;;;8.15;3.08;;;;;;;;;;2221221;61;21095;-84
2022/10/09 00:43:38;;;;;;;11.07;2.60;;;;;;;;;;2441357;57;21147;-84
2022/10/09 00:46:05;;;;;;;10.15;2.83;;;;;;;;;;2441119;57;21116;-84
2022/10/09 00:48:32;;;;;;;14.50;2.15;;;;;;;;;;2441076;57;21080;-84
2022/10/09 00:51:01;;;;;;;10.93;3.50;;;;;;;;;;2441026;57;21084;-84
2022/10/09 00:53:29;;;;;;;10.00;2.58;;;;;;;;;;2221471;61;21169;-84
2022/10/09 00:55:56;;;;;;;7.15;2.45;;;;;;;;;;2441104;57;21087;-84
2022/10/09 00:58:24;;;;;;;13.32;3.05;;;;;;;;;;2221502;61;21143;-84
2022/10/09 01:00:51;;;;;;;9.90;2.10;;;;;;;;;;2221339;61;21072;-84
2022/10/09 01:03:18;;;;;;;5.85;2.33;;;;;;;;;;2441523;57;21096;-84
2022/10/09 01:05:49;;;;;;;9.45;2.45;;;;;;;;;;2221735;61;21153;-84
2022/10/09 01:08:19;;;;;;;9.00;2.62;;;;;;;;;;2441434;57;21099;-84
2022/10/09 01:10:50;;;;;;;11.82;2.53;;;;;;;;;;2221525;61;21163;-84
2022/10/09 01:13:22;;;;;;;8.07;2.55;;;;;;;;;;2441602;56;21631;-84
2022/10/09 01:15:51;;;;;;;11.55;2.65;;;;;;;;;;2221380;61;21140;-84
2022/10/09 01:18:21;;;;;;;12.82;3.55;;;;;;;;;;2441304;57;21148;-85
2022/10/09 01:20:49;;;;;;;13.13;2.58;;;;;;;;;;2440896;57;21147;-84
2022/10/09 01:23:37;;;;;;;6.75;2.50;;;;;;;;;;2441419;57;21099;-84
2022/10/09 01:26:14;;;;;;;8.68;3.03;;;;;;;;;;2221780;61;21106;-84
2022/10/09 01:28:42;;;;;;;8.65;2.08;;;;;;;;;;2441564;57;21163;-84
2022/10/09 01:31:09;;;;;;;11.98;2.55;;;;;;;;;;2441065;57;21079;-83
2022/10/09 01:33:37;;;;;;;6.95;2.60;;;;;;;;;;2221820;61;21172;-84
2022/10/09 01:36:04;;;;;;;8.60;2.97;;;;;;;;;;2221439;61;21120;-84
2022/10/09 01:38:32;;;;;;;11.45;2.40;;;;;;;;;;2441530;57;21131;-84
2022/10/09 01:40:59;;;;;;;8.88;2.42;;;;;;;;;;2441165;57;21104;-84
2022/10/09 01:43:25;;;;;;;6.78;2.50;;;;;;;;;;2441397;57;21639;-85
2022/10/09 01:45:53;;;;;;;6.28;2.30;;;;;;;;;;2221369;61;21115;-84
2022/10/09 01:48:23;;;;;;;10.55;3.25;;;;;;;;;;2221895;61;21603;-84
2022/10/09 01:50:53;;;;;;;11.73;2.75;;;;;;;;;;2221380;61;21112;-84
2022/10/09 01:53:20;;;;;;;8.82;2.28;;;;;;;;;;2221880;61;21107;-84
2022/10/09 01:55:50;;;;;;;9.75;2.70;;;;;;;;;;2440770;57;21104;-83
2022/10/09 01:58:20;;;;;;;5.20;2.72;;;;;;;;;;2221847;61;21596;-83
2022/10/09 02:00:51;;;;;;;6.22;2.50;;;;;;;;;;2221463;61;21083;-84
2022/10/09 02:03:19;;;;;;;12.93;3.08;;;;;;;;;;2221764;61;21560;-84
2022/10/09 02:05:47;;;;;;;16.80;3.50;;;;;;;;;;2440535;57;21172;-83
2022/10/09 02:08:16;;;;;;;9.75;3.30;;;;;;;;;;2221499;61;21588;-83
2022/10/09 02:10:43;;;;;;;7.18;2.55;;;;;;;;;;2220106;61;21080;-83
2022/10/09 02:13:11;;;;;;;9.82;4.10;;;;;;;;;;2441474;57;21095;-84
2022/10/09 02:15:40;;;;;;;10.43;3.42;;;;;;;;;;2221741;61;21087;-84
2022/10/09 02:18:11;;;;;;;8.05;3.42;;;;;;;;;;2441989;57;21108;-83
2022/10/09 02:20:42;;;;;;;9.70;3.00;;;;;;;;;;2221766;61;21142;-83
2022/10/09 02:23:10;;;;;;;12.20;3.83;;;;;;;;;;2222021;61;21080;-84
2022/10/09 02:25:37;;;;;;;9.82;3.15;;;;;;;;;;2221725;61;21096;-84
2022/10/09 02:28:05;;;;;;;11.88;3.35;;;;;;;;;;2221861;61;21608;-83
2022/10/09 02:30:49;;;;;;;8.77;2.97;;;;;;;;;;2441385;57;21115;-83
2022/10/09 02:33:16;;;;;;;6.32;2.42;;;;;;;;;;2221674;61;21088;-84
2022/10/09 02:35:43;;;;;;;6.87;2.55;;;;;;;;;;2441548;56;21552;-84
2022/10/09 02:38:10;;;;;;;8.18;2.65;;;;;;;;;;2441697;57;21064;-84
2022/10/09 02:40:37;;;;;;;7.05;3.30;;;;;;;;;;2221671;61;21168;-83
2022/10/09 02:43:04;;;;;;;7.50;3.00;;;;;;;;;;2221762;61;21151;-84
2022/10/09 02:45:31;;;;;;;8.18;2.85;;;;;;;;;;2441687;57;21083;-83
2022/10/09 02:47:57;;;;;;;5.80;2.58;;;;;;;;;;2441372;57;21143;-84
2022/10/09 02:50:25;;;;;;;7.05;3.28;;;;;;;;;;2221829;61;21177;-83
2022/10/09 02:52:52;;;;;;;8.80;3.00;;;;;;;;;;2441468;57;21651;-84
2022/10/09 02:55:18;;;;;;;12.00;4.12;;;;;;;;;;2222061;61;21087;-83
2022/10/09 02:57:45;;;;;;;8.55;3.25;;;;;;;;;;2441491;57;21084;-83
2022/10/09 03:00:13;;;;;;;12.60;3.87;;;;;;;;;;2221768;61;21075;-83
2022/10/09 03:02:40;;;;;;;7.87;2.95;;;;;;;;;;2221733;61;21205;-84
2022/10/09 03:05:08;;;;;;;8.20;3.03;;;;;;;;;;2441536;56;21092;-84
2022/10/09 03:07:35;;;;;;;7.75;3.15;;;;;;;;;;2222051;61;21076;-84
2022/10/09 03:10:02;;;;;;;10.68;4.00;;;;;;;;;;2441733;57;21251;-84
2022/10/09 03:12:29;;;;;;;5.50;3.03;;;;;;;;;;2221909;61;21135;-84
2022/10/09 03:14:56;;;;;;;11.73;3.15;;;;;;;;;;2441765;57;21140;-84
2022/10/09 03:17:23;;;;;;;11.00;3.92;;;;;;;;;;2441658;57;21111;-84
2022/10/09 03:19:50;;;;;;;8.43;2.55;;;;;;;;;;2221915;61;21652;-84
2022/10/09 03:22:17;;;;;;;12.37;3.70;;;;;;;;;;2221700;61;21595;-84
2022/10/09 03:24:44;;;;;;;12.07;3.53;;;;;;;;;;2221849;61;21131;-84
2022/10/09 03:27:11;;;;;;;10.73;3.33;;;;;;;;;;2221950;61;21171;-84
2022/10/09 03:29:38;;;;;;;11.57;3.10;;;;;;;;;;2441463;57;21171;-84
2022/10/09 03:32:05;;;;;;;9.50;4.15;;;;;;;;;;2441337;57;21068;-83
2022/10/09 03:34:31;;;;;;;8.77;3.28;;;;;;;;;;2441879;57;21108;-84
2022/10/09 03:36:58;;;;;;;8.65;3.05;;;;;;;;;;2221997;61;21147;-84
2022/10/09 03:39:25;;;;;;;13.40;3.45;;;;;;;;;;2221766;61;21092;-84
2022/10/09 03:41:52;;;;;;;11.02;3.30;;;;;;;;;;2441353;57;21124;-84
2022/10/09 03:44:20;;;;;;;10.82;2.97;;;;;;;;;;2221835;61;21080;-84
2022/10/09 03:46:47;;;;;;;8.27;4.22;;;;;;;;;;2221999;61;21108;-84
2022/10/09 03:49:14;;;;;;;8.07;2.70;;;;;;;;;;2441327;57;21135;-84
2022/10/09 03:51:41;;;;;;;10.63;3.28;;;;;;;;;;2221531;61;21147;-83
2022/10/09 03:54:08;;;;;;;12.15;2.62;;;;;;;;;;2221604;61;21068;-84
2022/10/09 03:56:35;;;;;;;10.15;3.62;;;;;;;;;;2441754;57;21176;-84
2022/10/09 03:59:04;;;;;;;5.62;3.03;;;;;;;;;;2441485;57;22698;-83
2022/10/09 04:01:31;;;;;;;10.05;3.35;;;;;;;;;;2221552;61;21095;-84
2022/10/09 04:03:58;;;;;;;6.85;3.10;;;;;;;;;;2221839;61;21107;-84
2022/10/09 04:06:25;;;;;;;11.48;3.25;;;;;;;;;;2221603;61;21116;-84
2022/10/09 04:08:52;;;;;;;7.97;3.65;;;;;;;;;;2221894;61;21095;-84
2022/10/09 04:11:19;;;;;;;10.55;3.12;;;;;;;;;;2441576;56;21132;-84
2022/10/09 04:13:46;;;;;;;8.73;3.47;;;;;;;;;;2221969;61;21163;-83
2022/10/09 04:16:13;;;;;;;8.35;3.55;;;;;;;;;;2441625;57;21083;-84
2022/10/09 04:18:40;;;;;;;7.60;2.97;;;;;;;;;;2441326;56;21167;-84
2022/10/09 04:21:07;;;;;;;7.18;3.08;;;;;;;;;;2441286;57;21147;-84
2022/10/09 04:23:34;;;;;;;8.98;3.35;;;;;;;;;;2441373;56;21152;-84
2022/10/09 04:26:01;;;;;;;7.53;3.05;;;;;;;;;;2441589;57;21118;-84
2022/10/09 04:28:29;;;;;;;9.05;3.35;;;;;;;;;;2441452;57;21084;-84
2022/10/09 04:30:56;;;;;;;6.85;3.20;;;;;;;;;;2221664;61;21103;-84
2022/10/09 04:33:23;;;;;;;12.77;3.80;;;;;;;;;;2441572;57;21718;-84
2022/10/09 04:35:51;;;;;;;8.13;3.50;;;;;;;;;;2441676;57;21083;-84
2022/10/09 04:38:19;;;;;;;8.30;3.22;;;;;;;;;;2441312;57;21099;-84
2022/10/09 04:40:54;;;;;;;11.32;4.00;;;;;;;;;;2221284;61;21155;-83
2022/10/09 04:43:21;;;;;;;6.60;3.08;;;;;;;;;;2221882;61;21084;-84
2022/10/09 04:45:48;;;;;;;7.18;3.05;;;;;;;;;;2221876;61;21148;-84
2022/10/09 04:48:15;;;;;;;12.43;3.10;;;;;;;;;;2222370;61;21093;-83
2022/10/09 04:50:42;;;;;;;10.48;3.70;;;;;;;;;;2221385;61;21095;-83
2022/10/09 04:53:09;;;;;;;8.50;3.37;;;;;;;;;;2221753;61;21175;-84
2022/10/09 04:55:39;;;;;;;9.55;3.47;;;;;;;;;;2221542;61;21144;-84
2022/10/09 04:58:06;;;;;;;12.05;3.92;;;;;;;;;;2441314;57;21159;-84
2022/10/09 05:00:33;;;;;;;5.28;2.72;;;;;;;;;;2221641;61;21171;-82
2022/10/09 05:03:00;;;;;;;8.32;3.30;;;;;;;;;;2221603;61;21162;-84
2022/10/09 05:05:27;;;;;;;10.07;3.83;;;;;;;;;;2221431;61;21079;-83
2022/10/09 05:07:54;;;;;;;6.93;2.87;;;;;;;;;;2441397;57;21239;-83
2022/10/09 05:10:21;;;;;;;5.20;2.45;;;;;;;;;;2221370;61;21080;-83
2022/10/09 05:12:48;;;;;;;6.50;2.85;;;;;;;;;;2221490;61;21088;-83
2022/10/09 05:15:15;;;;;;;9.85;4.03;;;;;;;;;;2441372;57;21115;-83
2022/10/09 05:17:42;;;;;;;13.50;4.28;;;;;;;;;;2441574;57;21092;-83
2022/10/09 05:20:09;;;;;;;8.75;3.65;;;;;;;;;;2221605;61;21599;-83
2022/10/09 05:22:36;;;;;;;10.05;4.25;;;;;;;;;;2221518;61;21175;-83
2022/10/09 05:25:04;;;;;;;10.30;3.87;;;;;;;;;;2441228;57;21171;-84
2022/10/09 05:27:31;;;;;;;6.75;3.60;;;;;;;;;;2221806;61;21163;-83
2022/10/09 05:29:58;;;;;;;9.68;3.85;;;;;;;;;;2441221;57;21095;-83
2022/10/09 05:32:25;;;;;;;12.48;3.92;;;;;;;;;;2441311;57;21068;-83
2022/10/09 05:34:52;;;;;;;10.27;4.35;;;;;;;;;;2441369;57;21683;-83
2022/10/09 05:37:19;;;;;;;9.02;4.07;;;;;;;;;;2441655;57;21083;-84
2022/10/09 05:39:46;;;;;;;8.02;4.05;;;;;;;;;;2221824;61;21195;-84
2022/10/09 05:42:13;;;;;;;9.30;4.25;;;;;;;;;;2441287;57;21087;-84
2022/10/09 05:44:40;;;;;;;15.23;4.18;;;;;;;;;;2221719;61;21136;-84
2022/10/09 05:47:07;;;;;;;9.98;4.50;;;;;;;;;;2441400;57;21084;-85
2022/10/09 05:49:34;;;;;;;8.50;4.05;;;;;;;;;;2221702;61;21108;-84
2022/10/09 05:52:00;;;;;;;10.10;4.00;;;;;;;;;;2441328;57;21088;-84
2022/10/09 05:54:27;;;;;;;9.38;4.55;;;;;;;;;;2441449;57;21568;-84
2022/10/09 05:56:54;;;;;;;10.18;4.25;;;;;;;;;;2441119;57;21108;-84
2022/10/09 05:59:21;;;;;;;12.48;4.60;;;;;;;;;;2221835;61;21107;-84
2022/10/09 06:01:49;;;;;;;12.45;4.90;;;;;;;;;;2221496;61;21107;-84
2022/10/09 06:04:17;;;;;;;10.98;4.80;;;;;;;;;;2441297;57;21172;-84
2022/10/09 06:06:46;;;;;;;8.63;4.00;;;;;;;;;;2440977;57;21163;-84
2022/10/09 06:09:14;;;;;;;9.95;4.70;;;;;;;;;;2441281;57;21155;-84
2022/10/09 06:11:41;;;;;;;12.32;4.85;;;;;;;;;;2221292;61;21096;-84
2022/10/09 06:14:09;;;;;;;10.52;4.50;;;;;;;;;;2441170;56;21746;-85
2022/10/09 06:16:38;;;;;;;10.02;3.65;;;;;;;;;;2221387;61;21123;-84
2022/10/09 06:19:05;;;;;;;9.80;3.95;;;;;;;;;;2441319;57;21167;-84
2022/10/09 06:21:32;;;;;;;14.68;4.60;;;;;;;;;;2441318;57;21151;-84
2022/10/09 06:24:00;;;;;;;9.00;4.12;;;;;;;;;;2221971;61;21076;-84
2022/10/09 06:26:28;;;;;;;8.48;4.18;;;;;;;;;;2221697;61;21084;-84
2022/10/09 06:28:57;;;;;;;14.38;5.15;;;;;;;;;;2221819;61;21096;-84
2022/10/09 06:31:25;;;;;;;12.50;4.40;;;;;;;;;;2441484;57;21140;-84
2022/10/09 06:33:52;;;;;;;8.63;4.32;;;;;;;;;;2441903;57;21151;-83
2022/10/09 06:36:20;;;;;;;6.07;3.17;;;;;;;;;;2221823;61;21234;-85
2022/10/09 06:38:47;;;;;;;10.15;4.90;;;;;;;;;;2222135;61;21385;-84
2022/10/09 06:41:15;;;;;;;11.23;4.37;;;;;;;;;;2441303;57;21128;-84
2022/10/09 06:43:43;;;;;;;7.00;4.12;;;;;;;;;;2221938;61;21171;-84
2022/10/09 06:46:12;;;;;;;6.50;3.78;;;;;;;;;;2221710;61;21111;-84
2022/10/09 06:48:39;;;;;;;13.62;3.90;;;;;;;;;;2221951;61;21179;-84
2022/10/09 06:51:07;;;;;;;10.43;4.22;;;;;;;;;;2221745;61;21143;-83
2022/10/09 06:53:35;;;;;;;8.60;4.57;;;;;;;;;;2221823;61;21135;-84
2022/10/09 06:56:02;;;;;;;9.23;4.20;;;;;;;;;;2441538;56;21111;-84
2022/10/09 06:58:29;;;;;;;9.18;4.20;;;;;;;;;;2221918;61;21160;-84
2022/10/09 07:01:03;;;;;;;11.85;4.65;;;;;;;;;;2221645;61;21096;-83
2022/10/09 07:03:30;;;;;;;11.77;3.95;;;;;;;;;;2221794;61;21571;-84
2022/10/09 07:06:05;;;;;;;12.50;4.85;;;;;;;;;;2221845;61;21111;-84
2022/10/09 07:08:32;;;;;;;8.20;3.65;;;;;;;;;;2221786;61;21148;-84
2022/10/09 07:10:59;;;;;;;8.85;3.72;;;;;;;;;;2221595;61;21152;-84
2022/10/09 07:13:26;;;;;;;9.07;3.92;;;;;;;;;;2221742;61;21103;-84
2022/10/09 07:15:53;;;;;;;7.80;3.50;;;;;;;;;;2441618;57;21076;-84
2022/10/09 07:18:20;;;;;;;9.27;4.35;;;;;;;;;;2441668;57;21088;-84
2022/10/09 07:20:47;;;;;;;12.07;4.62;;;;;;;;;;2441455;57;21080;-84
2022/10/09 07:23:14;;;;;;;11.38;4.78;;;;;;;;;;2441856;57;21083;-84
2022/10/09 07:25:41;;;;;;;10.45;4.87;;;;;;;;;;2222152;61;21593;-84
2022/10/09 07:28:08;;;;;;;12.55;4.50;;;;;;;;;;2441647;57;21187;-84
2022/10/09 07:30:37;;;;;;;7.12;3.75;;;;;;;;;;2221448;61;21699;-83
2022/10/09 07:33:04;;;;;;;13.80;4.40;;;;;;;;;;2221776;61;21125;-85
2022/10/09 07:35:31;;;;;;;10.05;3.92;;;;;;;;;;2221739;61;21136;-84
2022/10/09 07:37:58;;;;;;;7.25;4.50;;;;;;;;;;2221950;61;21616;-84
2022/10/09 07:40:25;;;;;;;8.23;4.72;;;;;;;;;;2221881;61;21099;-84
2022/10/09 07:42:53;;;;;;;11.93;4.55;;;;;;;;;;2221796;61;21080;-84
2022/10/09 07:45:20;;;;;;;9.13;4.03;;;;;;;;;;2221757;61;21151;-84
2022/10/09 07:47:47;;;;;;;7.50;4.25;;;;;;;;;;2221645;61;21603;-84
2022/10/09 07:50:14;;;;;;;10.63;4.47;;;;;;;;;;2441656;57;22334;-84
2022/10/09 07:52:41;;;;;;;9.48;4.25;;;;;;;;;;2441453;57;21123;-83
2022/10/09 07:55:08;;;;;;;9.75;4.03;;;;;;;;;;2441643;57;21095;-84
2022/10/09 07:57:35;;;;;;;10.48;4.30;;;;;;;;;;2222093;61;21659;-84
2022/10/09 08:00:02;;;;;;;8.52;3.50;;;;;;;;;;2222150;61;21087;-84
2022/10/09 08:02:30;;;;;;;6.93;3.70;;;;;;;;;;2221553;61;21095;-84
2022/10/09 08:04:57;;;;;;;8.68;3.90;;;;;;;;;;2221727;61;21172;-84
2022/10/09 08:07:24;;;;;;;9.88;4.03;;;;;;;;;;2441687;57;21155;-84
2022/10/09 08:09:52;;;;;;;6.32;3.15;;;;;;;;;;2221725;61;21735;-84
2022/10/09 08:12:19;;;;;;;6.32;3.70;;;;;;;;;;2221462;61;21085;-84
2022/10/09 08:14:47;;;;;;;11.27;3.75;;;;;;;;;;2441507;56;21129;-84
2022/10/09 08:17:14;;;;;;;8.30;4.05;;;;;;;;;;2441691;57;21151;-84
2022/10/09 08:19:41;;;;;;;6.57;3.37;;;;;;;;;;2441581;57;21667;-84
2022/10/09 08:22:08;;;;;;;8.75;3.28;;;;;;;;;;2221409;61;21147;-83
2022/10/09 08:24:35;;;;;;;8.57;3.15;;;;;;;;;;2441830;57;21651;-84
2022/10/09 08:27:02;;;;;;;9.55;3.00;;;;;;;;;;2221768;61;21075;-84
2022/10/09 08:29:29;;;;;;;12.77;3.25;;;;;;;;;;2221740;61;21173;-84
2022/10/09 08:31:56;;;;;;;7.78;3.28;;;;;;;;;;2441559;57;21129;-84
2022/10/09 08:34:23;;;;;;;11.48;3.80;;;;;;;;;;2221702;61;21108;-84
2022/10/09 08:36:50;;;;;;;7.75;2.62;;;;;;;;;;2441659;57;21080;-84
2022/10/09 08:39:18;;;;;;;9.23;3.28;;;;;;;;;;2441565;57;21167;-84
2022/10/09 08:41:46;;;;;;;7.07;2.92;;;;;;;;;;2221819;61;21087;-84
2022/10/09 08:44:19;;;;;;;8.45;3.45;;;;;;;;;;2221821;61;21139;-84
2022/10/09 08:46:49;;;;;;;7.32;3.05;;;;;;;;;;2441660;57;21128;-84
2022/10/09 08:49:21;;;;;;;12.55;3.58;;;;;;;;;;2440955;57;21107;-84
2022/10/09 08:51:48;;;;;;;14.45;3.45;;;;;;;;;;2440885;57;21152;-83
2022/10/09 08:54:21;;;;;;;6.37;3.17;;;;;;;;;;2221730;61;21103;-84
2022/10/09 08:56:49;;;;;;;7.25;3.37;;;;;;;;;;2440394;57;21242;-84
2022/10/09 08:59:16;;;;;;;10.93;3.10;;;;;;;;;;2439926;57;21639;-83
2022/10/09 09:01:46;;;;;;;8.82;3.20;;;;;;;;;;2439159;57;21092;-83
2022/10/09 09:04:24;;;;;;;7.97;3.25;;;;;;;;;;2440762;57;21076;-84
2022/10/09 09:06:55;;;;;;;11.82;3.28;;;;;;;;;;2221754;61;21080;-84
2022/10/09 09:09:27;;;;;;;6.95;2.85;;;;;;;;;;2221701;61;21208;-84
2022/10/09 09:11:57;;;;;;;5.43;2.78;;;;;;;;;;2441054;57;21115;-83
2022/10/09 09:14:30;;;;;;;11.63;3.40;;;;;;;;;;2221702;61;21175;-84
2022/10/09 09:17:03;;;;;;;11.55;3.47;;;;;;;;;;2221766;61;21156;-84
2022/10/09 09:19:36;;;;;;;9.88;3.87;;;;;;;;;;2441717;57;21095;-84
2022/10/09 09:22:04;;;;;;;6.82;2.50;;;;;;;;;;2221583;61;21132;-83
2022/10/09 09:24:36;;;;;;;7.43;3.17;;;;;;;;;;2221879;61;21090;-84
2022/10/09 09:27:10;;;;;;;6.40;2.55;;;;;;;;;;2222027;61;21163;-83
2022/10/09 09:29:36;;;;;;;;;;;;;;;;;;2445145;57;21085;-84
2022/10/09 09:32:03;;;;;;;5.47;2.37;;;;;;;;;;2221367;61;20075;-84
2022/10/09 09:34:34;;;;;;;5.35;1.98;;;;;;;;;;2441667;57;21181;-84
2022/10/09 09:37:01;;;;;;;7.95;2.17;;;;;;;;;;2441462;57;21092;-83
2022/10/09 09:39:30;;;;;;;8.50;2.37;;;;;;;;;;2441814;57;21163;-84
2022/10/09 09:41:59;;;;;;;8.68;2.33;;;;;;;;;;2441390;57;21072;-83
2022/10/09 09:44:28;;;;;;;6.40;2.40;;;;;;;;;;2221948;61;21137;-83
2022/10/09 09:46:56;;;;;;;6.20;1.85;;;;;;;;;;2221657;61;21116;-83
2022/10/09 09:49:26;;;;;;;9.68;2.30;;;;;;;;;;2221812;61;21219;-83
2022/10/09 09:51:54;;;;;;;7.10;1.98;;;;;;;;;;2441482;56;21160;-84
2022/10/09 09:54:24;;;;;;;6.05;1.67;;;;;;;;;;2221739;61;21135;-84
2022/10/09 09:56:52;;;;;;;5.68;2.00;;;;;;;;;;2441319;57;21135;-84
2022/10/09 09:59:31;;;;;;;5.43;1.75;;;;;;;;;;2441860;57;21191;-84
2022/10/09 10:02:02;;;;;;;7.40;2.00;;;;;;;;;;2221276;61;21088;-86
2022/10/09 10:04:29;;;;;;;9.30;2.33;;;;;;;;;;2221528;61;21079;-85
2022/10/09 10:06:56;;;;;;;8.68;2.00;;;;;;;;;;2441531;57;21191;-86
2022/10/09 10:09:23;;;;;;;8.30;1.83;;;;;;;;;;2221668;61;21191;-85
2022/10/09 10:11:54;;;;;;;9.50;2.47;;;;;;;;;;2221250;61;21178;-83
2022/10/09 10:14:21;;;;;;;7.80;1.80;;;;;;;;;;2441432;56;21149;-86
2022/10/09 10:16:49;;;;;;;4.75;1.60;;;;;;;;;;2221519;61;21076;-86
2022/10/09 10:19:21;;;;;;;6.03;1.58;;;;;;;;;;2221781;61;21100;-85
2022/10/09 10:21:55;;;;;;;5.50;1.55;;;;;;;;;;2221434;61;21152;-83
2022/10/09 10:24:26;;;;;;;4.45;1.40;;;;;;;;;;2221655;61;21135;-84
2022/10/09 10:26:55;;;;;;;5.57;1.25;;;;;;;;;;2221760;61;21075;-83
2022/10/09 10:29:24;;;;;;;9.85;1.77;;;;;;;;;;2221549;61;21112;-83
2022/10/09 10:31:54;;;;;;;4.90;1.50;;;;;;;;;;2221409;61;21144;-84
2022/10/09 10:34:23;;;;;;;5.15;1.80;;;;;;;;;;2441312;57;21101;-84
2022/10/09 10:36:52;;;;;;;8.50;3.10;;;;;;;;;;2221394;61;21190;-83
2022/10/09 10:39:24;;;;;;;6.05;1.48;;;;;;;;;;2441409;57;21083;-84
2022/10/09 10:41:52;;;;;;;3.78;1.50;;;;;;;;;;2221291;61;21136;-83
2022/10/09 10:44:22;;;;;;;3.35;1.37;;;;;;;;;;2441139;57;21151;-83
2022/10/09 10:46:53;;;;;;;6.12;1.77;;;;;;;;;;2221301;61;21095;-84
2022/10/09 10:49:21;;;;;;;7.97;1.77;;;;;;;;;;2440932;57;21135;-83
2022/10/09 10:51:56;;;;;;;5.55;1.70;;;;;;;;;;2221083;61;21105;-84
2022/10/09 10:54:27;;;;;;;4.68;1.58;;;;;;;;;;2221216;61;21104;-82
2022/10/09 10:56:56;;;;;;;5.50;1.67;;;;;;;;;;2221310;61;21167;-83
2022/10/09 10:59:29;;;;;;;5.43;2.37;;;;;;;;;;2221445;61;21084;-83
2022/10/09 11:02:03;;;;;;;6.45;1.75;;;;;;;;;;2440865;57;21115;-83
2022/10/09 11:04:37;;;;;;;9.07;1.52;;;;;;;;;;2221257;61;21142;-84
2022/10/09 11:07:08;;;;;;;5.00;1.37;;;;;;;;;;2441042;57;21135;-84
2022/10/09 11:09:40;;;;;;;4.82;1.50;;;;;;;;;;2441222;57;21096;-84
2022/10/09 11:12:11;;;;;;;7.07;1.77;;;;;;;;;;2220812;61;21171;-84
2022/10/09 11:14:43;;;;;;;5.37;1.50;;;;;;;;;;2221079;61;21108;-83
2022/10/09 11:17:16;;;;;;;3.90;1.42;;;;;;;;;;2441465;57;21080;-84
2022/10/09 11:19:52;;;;;;;2.15;1.05;;;;;;;;;;2221702;61;21123;-84
2022/10/09 11:22:26;;;;;;;5.60;1.62;;;;;;;;;;2221317;61;21104;-84
2022/10/09 11:24:59;;;;;;;5.62;1.50;;;;;;;;;;2221644;61;21599;-86
2022/10/09 11:27:29;;;;;;;2.90;1.30;;;;;;;;;;2221507;61;21159;-84
2022/10/09 11:29:59;;;;;;;3.30;1.40;;;;;;;;;;2221490;61;21101;-84
2022/10/09 11:32:29;;;;;;;5.07;1.62;;;;;;;;;;2221413;61;21611;-84
2022/10/09 11:34:59;;;;;;;4.25;1.40;;;;;;;;;;2221322;61;21460;-84
2022/10/09 11:37:28;;;;;;;5.18;1.73;;;;;;;;;;2441602;57;21565;-84
2022/10/09 11:39:55;;;;;;;5.03;1.48;;;;;;;;;;2221900;61;21115;-84
2022/10/09 11:42:23;;;;;;;6.62;1.30;;;;;;;;;;2441328;57;21155;-84
2022/10/09 11:44:54;;;;;;;5.15;1.58;;;;;;;;;;2441432;57;21096;-84
2022/10/09 11:47:24;;;;;;;3.70;1.40;;;;;;;;;;2221841;61;21100;-84
2022/10/09 11:49:59;;;;;;;2.12;1.00;;;;;;;;;;2441419;57;21135;-84
2022/10/09 11:52:29;;;;;;;4.18;1.40;;;;;;;;;;2441411;57;21072;-84
2022/10/09 11:55:07;;;;;;;6.93;1.52;;;;;;;;;;2221597;61;21088;-83
2022/10/09 11:57:34;;;;;;;5.43;1.50;;;;;;;;;;2221782;61;21147;-83
2022/10/09 12:00:06;;;;;;;5.60;1.65;;;;;;;;;;2221569;61;21080;-83
2022/10/09 12:02:33;;;;;;;4.55;1.12;;;;;;;;;;2441135;57;21128;-83
2022/10/09 12:05:00;;;;;;;4.40;1.17;;;;;;;;;;2441223;57;21120;-84
2022/10/09 12:07:29;;;;;;;6.78;1.65;;;;;;;;;;2441210;57;21160;-83
2022/10/09 12:09:58;;;;;;;3.92;1.75;;;;;;;;;;2221525;61;21080;-84
2022/10/09 12:12:26;;;;;;;4.10;1.30;;;;;;;;;;2441309;57;21068;-83
2022/10/09 12:14:53;;;;;;;3.50;1.23;;;;;;;;;;2441211;57;21080;-83
2022/10/09 12:17:33;;;;;;;6.95;1.33;;;;;;;;;;2441331;56;21136;-85
2022/10/09 12:20:04;;;;;;;4.85;1.40;;;;;;;;;;2222234;61;21087;-84
2022/10/09 12:22:33;;;;;;;2.97;1.17;;;;;;;;;;2221344;61;21117;-83
2022/10/09 12:25:05;;;;;;;5.82;1.33;;;;;;;;;;2441010;57;21075;-83
2022/10/09 12:27:34;;;;;;;4.40;1.30;;;;;;;;;;2441447;57;21128;-84
2022/10/09 12:30:05;;;;;;;8.07;1.48;;;;;;;;;;2441037;57;21584;-84
2022/10/09 12:32:35;;;;;;;5.85;1.30;;;;;;;;;;2221751;61;21135;-84
2022/10/09 12:35:04;;;;;;;2.58;0.88;;;;;;;;;;2441316;57;21079;-84
2022/10/09 12:37:33;;;;;;;4.60;1.40;;;;;;;;;;2221238;61;21076;-84
2022/10/09 12:40:08;;;;;;;4.87;1.35;;;;;;;;;;2221483;61;21143;-84
2022/10/09 12:42:35;;;;;;;5.47;1.40;;;;;;;;;;2441072;57;21164;-84
2022/10/09 12:45:02;;;;;;;3.90;1.35;;;;;;;;;;2221690;61;21128;-83
2022/10/09 12:47:29;;;;;;;6.25;1.17;;;;;;;;;;2221512;61;21120;-84
2022/10/09 12:50:03;;;;;;;4.32;1.25;;;;;;;;;;2221383;61;21135;-85
2022/10/09 12:52:31;;;;;;;3.47;1.35;;;;;;;;;;2441079;57;21128;-84
2022/10/09 12:54:58;;;;;;;4.15;1.25;;;;;;;;;;2221561;61;21152;-85
2022/10/09 12:57:26;;;;;;;6.15;1.40;;;;;;;;;;2221733;61;21084;-84
2022/10/09 12:59:53;;;;;;;3.65;1.20;;;;;;;;;;2221302;61;21238;-84
2022/10/09 13:02:20;;;;;;;5.47;1.20;;;;;;;;;;2221515;61;21088;-84
2022/10/09 13:04:59;;;;;;;8.02;1.77;;;;;;;;;;2221612;61;21537;-83
2022/10/09 13:07:27;;;;;;;5.68;1.35;;;;;;;;;;2221433;61;21075;-84
2022/10/09 13:09:58;;;;;;;5.87;1.90;;;;;;;;;;2440896;57;21072;-84
2022/10/09 13:12:26;;;;;;;4.30;1.65;;;;;;;;;;2221506;61;21075;-84
2022/10/09 13:14:54;;;;;;;6.05;1.45;;;;;;;;;;2441106;57;21061;-85
2022/10/09 13:17:23;;;;;;;2.92;1.20;;;;;;;;;;2221559;61;21206;-84
2022/10/09 13:19:52;;;;;;;5.35;1.60;;;;;;;;;;2221336;61;21136;-83
2022/10/09 13:22:20;;;;;;;4.50;1.23;;;;;;;;;;2440965;57;21087;-85
2022/10/09 13:24:47;;;;;;;5.00;1.35;;;;;;;;;;2221176;61;21243;-84
2022/10/09 13:27:14;;;;;;;4.18;1.15;;;;;;;;;;2440870;57;21084;-84
2022/10/09 13:29:41;;;;;;;7.47;1.35;;;;;;;;;;2440885;57;21079;-84
2022/10/09 13:32:10;;;;;;;3.78;1.35;;;;;;;;;;2221155;61;21100;-84
2022/10/09 13:34:37;;;;;;;3.40;1.10;;;;;;;;;;2441165;57;21103;-84
2022/10/09 13:37:04;;;;;;;2.40;1.10;;;;;;;;;;2441063;57;21096;-84
2022/10/09 13:39:31;;;;;;;6.07;1.42;;;;;;;;;;2221416;61;21163;-84
2022/10/09 13:41:59;;;;;;;4.65;1.20;;;;;;;;;;2221186;61;21100;-84
2022/10/09 13:44:26;;;;;;;3.17;1.00;;;;;;;;;;2221565;61;21147;-84
2022/10/09 13:46:53;;;;;;;5.20;1.40;;;;;;;;;;2441284;57;21223;-84
2022/10/09 13:49:20;;;;;;;2.17;0.95;;;;;;;;;;2441373;57;21136;-84
2022/10/09 13:51:47;;;;;;;3.78;1.65;;;;;;;;;;2221070;61;21103;-85
2022/10/09 13:54:14;;;;;;;2.47;0.98;;;;;;;;;;2221706;61;21092;-84
2022/10/09 13:56:41;;;;;;;2.85;1.12;;;;;;;;;;2441334;57;21168;-84
2022/10/09 13:59:08;;;;;;;4.37;1.52;;;;;;;;;;2221788;61;21087;-84
2022/10/09 14:01:35;;;;;;;3.67;1.25;;;;;;;;;;2221434;61;21083;-84
2022/10/09 14:04:02;;;;;;;5.50;1.10;;;;;;;;;;2221475;61;21156;-84
2022/10/09 14:06:29;;;;;;;5.20;1.23;;;;;;;;;;2221425;61;21159;-84
2022/10/09 14:08:56;;;;;;;3.45;1.02;;;;;;;;;;2440323;57;21247;-83
2022/10/09 14:11:23;;;;;;;2.42;1.20;;;;;;;;;;2220216;61;21096;-83
2022/10/09 14:13:50;;;;;;;3.08;1.10;;;;;;;;;;2221197;61;21143;-84
2022/10/09 14:16:17;;;;;;;6.55;1.30;;;;;;;;;;2441390;56;21168;-84
2022/10/09 14:18:44;;;;;;;2.33;0.90;;;;;;;;;;2221579;61;21147;-84
2022/10/09 14:21:11;;;;;;;3.75;1.37;;;;;;;;;;2221172;61;21151;-84
2022/10/09 14:23:38;;;;;;;7.12;1.30;;;;;;;;;;2221678;61;21087;-84
2022/10/09 14:26:06;;;;;;;6.32;1.20;;;;;;;;;;2221847;61;21120;-84
2022/10/09 14:28:33;;;;;;;5.05;1.35;;;;;;;;;;2221708;61;21160;-84
2022/10/09 14:31:04;;;;;;;4.70;1.58;;;;;;;;;;2221273;61;21156;-84
2022/10/09 14:33:31;;;;;;;3.35;1.60;;;;;;;;;;2221772;61;21127;-84
2022/10/09 14:36:04;;;;;;;4.37;1.60;;;;;;;;;;2441134;57;21231;-84
2022/10/09 14:38:31;;;;;;;3.85;1.50;;;;;;;;;;2221775;61;21115;-84
2022/10/09 14:40:58;;;;;;;5.75;1.70;;;;;;;;;;2221322;61;21107;-84
2022/10/09 14:43:25;;;;;;;3.87;1.37;;;;;;;;;;2441303;57;21092;-85
2022/10/09 14:46:01;;;;;;;3.45;1.02;;;;;;;;;;2221458;61;21687;-83
2022/10/09 14:48:28;;;;;;;5.28;1.25;;;;;;;;;;2221395;61;21144;-84